createdAt,value
2022-12-18T00:01:20.443Z,-8
2022-12-18T00:11:20.563Z,-8.2
2022-12-18T00:21:21.256Z,-8.1
2022-12-18T00:31:21.947Z,-8.1
2022-12-18T00:41:22.907Z,-8.3
2022-12-18T00:51:23.883Z,-8.2
2022-12-18T01:11:24.661Z,-8.3
2022-12-18T01:21:25.243Z,-8.4
2022-12-18T01:31:26.191Z,-8.4
2022-12-18T01:41:27.016Z,-8.4
2022-12-18T01:51:27.161Z,-8.5
2022-12-18T02:01:27.996Z,-8.5
2022-12-18T02:11:28.198Z,-8.5
2022-12-18T02:21:29.030Z,-8.5
2022-12-18T02:31:29.806Z,-8.7
2022-12-18T02:41:29.935Z,-8.8
2022-12-18T02:51:30.367Z,-9
2022-12-18T03:01:30.937Z,-9.1
2022-12-18T03:11:31.706Z,-9.2
2022-12-18T03:21:32.374Z,-9.3
2022-12-18T03:31:33.290Z,-9.6
2022-12-18T03:41:34.171Z,-9.6
2022-12-18T04:01:35.771Z,-9.6
2022-12-18T04:11:36.518Z,-9.5
2022-12-18T04:21:37.428Z,-9.4
2022-12-18T04:31:37.761Z,-9.5
2022-12-18T04:41:37.839Z,-9.6
2022-12-18T05:01:39.779Z,-9.4
2022-12-18T05:11:40.748Z,-9.3
2022-12-18T05:21:41.083Z,-9.3
2022-12-18T05:31:41.257Z,-9.3
2022-12-18T05:41:42.015Z,-9.3
2022-12-18T05:51:42.668Z,-9.3
2022-12-18T06:01:43.068Z,-9.4
2022-12-18T06:11:43.836Z,-9.6
2022-12-18T06:21:43.960Z,-9.7
2022-12-18T06:31:44.590Z,-9.7
2022-12-18T06:41:45.441Z,-9.7
2022-12-18T06:51:46.355Z,-9.6
2022-12-18T07:11:47.627Z,-9.7
2022-12-18T07:21:48.622Z,-9.7
2022-12-18T07:31:49.143Z,-9.6
2022-12-18T07:51:50.410Z,-9.5
2022-12-18T08:11:50.809Z,-9.2
2022-12-18T08:31:52.570Z,-8.9
2022-12-18T08:51:53.963Z,-8.4
2022-12-18T09:01:54.527Z,-8.2
2022-12-18T09:11:55.366Z,-7.8
2022-12-18T09:21:55.671Z,-7.5
2022-12-18T09:31:56.247Z,-7.3
2022-12-18T09:41:56.350Z,-6.9
2022-12-18T09:51:57.057Z,-6.2
2022-12-18T10:01:58.100Z,-5.6
2022-12-18T10:11:58.658Z,-5.5
2022-12-18T10:31:59.790Z,-5.1
2022-12-18T10:52:01.009Z,-4.5
2022-12-18T11:02:01.641Z,-4.2
2022-12-18T11:12:02.550Z,-3.9
2022-12-18T11:42:04.178Z,-3.2
2022-12-18T11:52:05.188Z,-3
2022-12-18T12:02:05.425Z,-2.8
2022-12-18T12:12:06.332Z,-2.6
2022-12-18T12:22:06.808Z,-2.4
2022-12-18T12:32:06.917Z,-2.3
2022-12-18T12:42:07.639Z,-2.1
2022-12-18T13:02:09.054Z,-1.8
2022-12-18T13:12:09.143Z,-1.7
2022-12-18T13:12:33.414Z,-1.7
2022-12-18T13:22:15.652Z,-1.6
2022-12-18T13:32:19.784Z,-1.5
2022-12-18T13:42:17.238Z,-1.5
2022-12-18T13:52:17.568Z,-1.5
2022-12-18T14:02:18.616Z,-1.5
2022-12-18T14:12:18.932Z,-1.5
2022-12-18T14:22:19.428Z,-1.6
2022-12-18T14:32:19.701Z,-1.6
2022-12-18T14:42:20.730Z,-1.5
2022-12-18T14:52:21.180Z,-1.5
2022-12-18T15:02:21.863Z,-1.5
2022-12-18T15:12:21.853Z,-1.5
2022-12-18T15:22:22.275Z,-1.5
2022-12-18T15:32:22.992Z,-1.5
2022-12-18T15:42:23.545Z,-1.5
2022-12-18T15:52:24.206Z,-1.5
2022-12-18T16:02:24.745Z,-1.5
2022-12-18T16:12:25.271Z,-1.4
2022-12-18T16:22:25.850Z,-1.3
2022-12-18T16:32:26.098Z,-1.3
2022-12-18T16:52:27.016Z,-1.3
2022-12-18T17:02:28.128Z,-1.3
2022-12-18T17:12:28.151Z,-1.3
2022-12-18T17:22:28.763Z,-1.2
2022-12-18T17:32:29.580Z,-1.1
2022-12-18T17:42:30.167Z,-0.9
2022-12-18T17:52:30.421Z,-0.9
2022-12-18T18:12:31.560Z,-0.8
2022-12-18T18:22:31.905Z,-0.9
2022-12-18T18:32:32.894Z,-0.8
2022-12-18T18:52:34.879Z,-0.3
2022-12-18T19:02:35.679Z,0
2022-12-18T19:12:36.515Z,0.3
2022-12-18T19:22:37.014Z,0.4
2022-12-18T19:32:37.497Z,0.5
2022-12-18T19:42:37.755Z,0.5
2022-12-18T20:02:39.559Z,0.5
2022-12-18T20:12:39.496Z,0.6
2022-12-18T20:32:39.876Z,0.6
2022-12-18T20:42:40.139Z,0.6
2022-12-18T20:52:40.964Z,0.6
2022-12-18T21:02:41.563Z,0.6
2022-12-18T21:12:44.933Z,0.7
2022-12-18T21:22:42.956Z,0.7
2022-12-18T21:32:43.234Z,0.6
2022-12-18T21:42:43.391Z,0.6
2022-12-18T21:52:43.920Z,0.5
2022-12-18T22:02:44.735Z,0.4
2022-12-18T22:12:45.929Z,0.3
2022-12-18T22:22:45.686Z,0.3
2022-12-18T22:32:46.441Z,0.3
2022-12-18T22:42:46.588Z,0.3
2022-12-18T22:52:47.436Z,0.3
2022-12-18T23:02:48.175Z,0.5
2022-12-18T23:22:49.331Z,0.6
2022-12-18T23:32:49.636Z,0.6
2022-12-18T23:42:50.632Z,0.6
2022-12-18T23:52:51.144Z,0.6
